sensor_id;sensor_type;location;lat;lon;timestamp;temperature;humidity
69533;DHT22;56729;52.036;5.332;2023-03-31T00:00:53;10.30;99.90
69533;DHT22;56729;52.036;5.332;2023-03-31T00:02:00;10.30;99.90
69533;DHT22;56729;52.036;5.332;2023-03-31T00:03:02;10.30;99.90
69533;DHT22;56729;52.036;5.332;2023-03-31T00:04:13;10.30;99.90
69533;DHT22;56729;52.036;5.332;2023-03-31T00:05:15;10.20;99.90
69533;DHT22;56729;52.036;5.332;2023-03-31T00:06:18;10.20;99.90
69533;DHT22;56729;52.036;5.332;2023-03-31T00:07:20;10.20;99.90
69533;DHT22;56729;52.036;5.332;2023-03-31T00:08:27;10.20;99.90
69533;DHT22;56729;52.036;5.332;2023-03-31T00:09:31;10.20;99.90
69533;DHT22;56729;52.036;5.332;2023-03-31T00:10:34;10.20;99.90
69533;DHT22;56729;52.036;5.332;2023-03-31T00:11:36;10.20;99.90
69533;DHT22;56729;52.036;5.332;2023-03-31T00:12:38;10.20;99.90
69533;DHT22;56729;52.036;5.332;2023-03-31T00:13:40;10.20;99.90
69533;DHT22;56729;52.036;5.332;2023-03-31T00:14:43;10.20;99.90
69533;DHT22;56729;52.036;5.332;2023-03-31T00:15:45;10.20;99.90
69533;DHT22;56729;52.036;5.332;2023-03-31T00:16:46;10.10;99.90
69533;DHT22;56729;52.036;5.332;2023-03-31T00:17:49;10.20;99.90
69533;DHT22;56729;52.036;5.332;2023-03-31T00:18:51;10.10;99.90
69533;DHT22;56729;52.036;5.332;2023-03-31T00:19:54;10.20;99.90
69533;DHT22;56729;52.036;5.332;2023-03-31T00:21:12;10.20;99.90
69533;DHT22;56729;52.036;5.332;2023-03-31T00:22:29;10.10;99.90
69533;DHT22;56729;52.036;5.332;2023-03-31T00:23:31;10.10;99.90
69533;DHT22;56729;52.036;5.332;2023-03-31T00:24:34;10.10;99.90
69533;DHT22;56729;52.036;5.332;2023-03-31T00:25:39;10.10;99.90
69533;DHT22;56729;52.036;5.332;2023-03-31T00:26:43;10.10;99.90
69533;DHT22;56729;52.036;5.332;2023-03-31T00:27:45;10.10;99.90
69533;DHT22;56729;52.036;5.332;2023-03-31T00:28:48;10.10;99.90
69533;DHT22;56729;52.036;5.332;2023-03-31T00:29:51;10.10;99.90
69533;DHT22;56729;52.036;5.332;2023-03-31T00:30:59;10.10;99.90
69533;DHT22;56729;52.036;5.332;2023-03-31T00:32:01;10.10;99.90
69533;DHT22;56729;52.036;5.332;2023-03-31T00:33:03;10.10;99.90
69533;DHT22;56729;52.036;5.332;2023-03-31T00:34:05;10.10;99.90
69533;DHT22;56729;52.036;5.332;2023-03-31T00:35:08;10.20;99.90
69533;DHT22;56729;52.036;5.332;2023-03-31T00:36:10;10.10;99.90
69533;DHT22;56729;52.036;5.332;2023-03-31T00:37:12;10.20;99.90
69533;DHT22;56729;52.036;5.332;2023-03-31T00:38:15;10.20;99.90
69533;DHT22;56729;52.036;5.332;2023-03-31T00:39:18;10.20;99.90
69533;DHT22;56729;52.036;5.332;2023-03-31T00:40:20;10.20;99.90
69533;DHT22;56729;52.036;5.332;2023-03-31T00:41:22;10.20;99.90
69533;DHT22;56729;52.036;5.332;2023-03-31T00:42:24;10.20;99.90
69533;DHT22;56729;52.036;5.332;2023-03-31T00:43:36;10.30;99.90
69533;DHT22;56729;52.036;5.332;2023-03-31T00:45:19;10.30;99.90
69533;DHT22;56729;52.036;5.332;2023-03-31T00:46:33;10.30;99.90
69533;DHT22;56729;52.036;5.332;2023-03-31T00:47:37;10.30;99.90
69533;DHT22;56729;52.036;5.332;2023-03-31T00:48:50;10.30;99.90
69533;DHT22;56729;52.036;5.332;2023-03-31T00:49:54;10.30;99.90
69533;DHT22;56729;52.036;5.332;2023-03-31T00:51:03;10.30;99.90
69533;DHT22;56729;52.036;5.332;2023-03-31T00:53:16;10.40;99.90
69533;DHT22;56729;52.036;5.332;2023-03-31T00:54:19;10.40;99.90
69533;DHT22;56729;52.036;5.332;2023-03-31T00:55:32;10.40;99.90
69533;DHT22;56729;52.036;5.332;2023-03-31T00:56:39;10.50;99.90
69533;DHT22;56729;52.036;5.332;2023-03-31T00:57:44;10.50;99.90
69533;DHT22;56729;52.036;5.332;2023-03-31T00:58:47;10.50;99.90
69533;DHT22;56729;52.036;5.332;2023-03-31T00:59:52;10.50;99.90
69533;DHT22;56729;52.036;5.332;2023-03-31T01:00:58;10.60;99.90
69533;DHT22;56729;52.036;5.332;2023-03-31T01:02:01;10.60;99.90
69533;DHT22;56729;52.036;5.332;2023-03-31T01:03:06;10.60;99.90
69533;DHT22;56729;52.036;5.332;2023-03-31T01:04:12;10.60;99.90
69533;DHT22;56729;52.036;5.332;2023-03-31T01:05:14;10.70;99.90
69533;DHT22;56729;52.036;5.332;2023-03-31T01:06:17;10.70;99.90
69533;DHT22;56729;52.036;5.332;2023-03-31T01:07:44;10.70;99.90
69533;DHT22;56729;52.036;5.332;2023-03-31T01:08:49;10.70;99.90
69533;DHT22;56729;52.036;5.332;2023-03-31T01:09:52;10.70;99.90
69533;DHT22;56729;52.036;5.332;2023-03-31T01:11:02;10.80;99.90
69533;DHT22;56729;52.036;5.332;2023-03-31T01:12:06;10.80;99.90
69533;DHT22;56729;52.036;5.332;2023-03-31T01:13:10;10.80;99.90
69533;DHT22;56729;52.036;5.332;2023-03-31T01:14:13;10.80;99.90
69533;DHT22;56729;52.036;5.332;2023-03-31T01:15:18;10.80;99.90
69533;DHT22;56729;52.036;5.332;2023-03-31T01:16:20;10.80;99.90
69533;DHT22;56729;52.036;5.332;2023-03-31T01:17:22;10.80;99.90
69533;DHT22;56729;52.036;5.332;2023-03-31T01:18:26;10.80;99.90
69533;DHT22;56729;52.036;5.332;2023-03-31T01:19:51;10.90;99.90
69533;DHT22;56729;52.036;5.332;2023-03-31T01:24:33;10.90;99.90
69533;DHT22;56729;52.036;5.332;2023-03-31T01:30:10;10.80;99.90
69533;DHT22;56729;52.036;5.332;2023-03-31T01:37:29;10.90;99.90
69533;DHT22;56729;52.036;5.332;2023-03-31T01:43:25;10.90;99.90
69533;DHT22;56729;52.036;5.332;2023-03-31T01:45:59;10.90;99.90
69533;DHT22;56729;52.036;5.332;2023-03-31T01:47:24;10.90;99.90
69533;DHT22;56729;52.036;5.332;2023-03-31T01:51:21;10.90;99.90
69533;DHT22;56729;52.036;5.332;2023-03-31T01:52:35;10.90;99.90
69533;DHT22;56729;52.036;5.332;2023-03-31T01:55:03;11.00;99.90
69533;DHT22;56729;52.036;5.332;2023-03-31T01:56:24;11.00;99.90
69533;DHT22;56729;52.036;5.332;2023-03-31T01:58:02;11.00;99.90
69533;DHT22;56729;52.036;5.332;2023-03-31T01:59:13;11.00;99.90
69533;DHT22;56729;52.036;5.332;2023-03-31T02:00:25;11.00;99.90
69533;DHT22;56729;52.036;5.332;2023-03-31T02:01:37;11.00;99.90
69533;DHT22;56729;52.036;5.332;2023-03-31T02:02:55;11.00;99.90
69533;DHT22;56729;52.036;5.332;2023-03-31T02:05:19;11.00;99.90
69533;DHT22;56729;52.036;5.332;2023-03-31T02:06:26;11.10;99.90
69533;DHT22;56729;52.036;5.332;2023-03-31T02:07:38;11.10;99.90
69533;DHT22;56729;52.036;5.332;2023-03-31T02:08:52;11.10;99.90
69533;DHT22;56729;52.036;5.332;2023-03-31T02:09:58;11.10;99.90
69533;DHT22;56729;52.036;5.332;2023-03-31T02:11:02;11.10;99.90
69533;DHT22;56729;52.036;5.332;2023-03-31T02:12:07;11.10;99.90
69533;DHT22;56729;52.036;5.332;2023-03-31T02:13:12;11.10;99.90
69533;DHT22;56729;52.036;5.332;2023-03-31T02:14:20;11.20;99.90
69533;DHT22;56729;52.036;5.332;2023-03-31T02:15:27;11.20;99.90
69533;DHT22;56729;52.036;5.332;2023-03-31T02:16:33;11.20;99.90
69533;DHT22;56729;52.036;5.332;2023-03-31T02:17:39;11.20;99.90
69533;DHT22;56729;52.036;5.332;2023-03-31T02:18:48;11.20;99.90
69533;DHT22;56729;52.036;5.332;2023-03-31T02:19:53;11.30;99.90
69533;DHT22;56729;52.036;5.332;2023-03-31T02:20:57;11.30;99.90
69533;DHT22;56729;52.036;5.332;2023-03-31T02:22:01;11.30;99.90
69533;DHT22;56729;52.036;5.332;2023-03-31T02:23:05;11.30;99.90
69533;DHT22;56729;52.036;5.332;2023-03-31T02:24:10;11.30;99.90
69533;DHT22;56729;52.036;5.332;2023-03-31T02:25:18;11.30;99.90
69533;DHT22;56729;52.036;5.332;2023-03-31T02:26:24;11.30;99.90
69533;DHT22;56729;52.036;5.332;2023-03-31T02:27:35;11.30;99.90
69533;DHT22;56729;52.036;5.332;2023-03-31T02:28:39;11.30;99.90
69533;DHT22;56729;52.036;5.332;2023-03-31T02:29:41;11.30;99.90
69533;DHT22;56729;52.036;5.332;2023-03-31T02:31:10;11.30;99.90
69533;DHT22;56729;52.036;5.332;2023-03-31T02:32:23;11.40;99.90
69533;DHT22;56729;52.036;5.332;2023-03-31T02:33:27;11.30;99.90
69533;DHT22;56729;52.036;5.332;2023-03-31T02:34:29;11.30;99.90
69533;DHT22;56729;52.036;5.332;2023-03-31T02:35:32;11.30;99.90
69533;DHT22;56729;52.036;5.332;2023-03-31T02:36:37;11.30;99.90
69533;DHT22;56729;52.036;5.332;2023-03-31T02:37:41;11.30;99.90
69533;DHT22;56729;52.036;5.332;2023-03-31T02:38:50;11.30;99.90
69533;DHT22;56729;52.036;5.332;2023-03-31T02:39:55;11.30;99.90
69533;DHT22;56729;52.036;5.332;2023-03-31T02:40:58;11.30;99.90
69533;DHT22;56729;52.036;5.332;2023-03-31T02:42:01;11.30;99.90
69533;DHT22;56729;52.036;5.332;2023-03-31T02:43:08;11.30;99.90
69533;DHT22;56729;52.036;5.332;2023-03-31T02:44:10;11.30;99.90
69533;DHT22;56729;52.036;5.332;2023-03-31T02:46:36;11.30;99.90
69533;DHT22;56729;52.036;5.332;2023-03-31T02:47:38;11.30;99.90
69533;DHT22;56729;52.036;5.332;2023-03-31T02:48:49;11.30;99.90
69533;DHT22;56729;52.036;5.332;2023-03-31T02:49:56;11.30;99.90
69533;DHT22;56729;52.036;5.332;2023-03-31T02:56:32;11.20;99.90
69533;DHT22;56729;52.036;5.332;2023-03-31T03:01:30;11.10;99.90
69533;DHT22;56729;52.036;5.332;2023-03-31T03:04:24;11.10;99.90
69533;DHT22;56729;52.036;5.332;2023-03-31T03:05:43;11.10;99.90
69533;DHT22;56729;52.036;5.332;2023-03-31T03:07:23;11.00;99.90
69533;DHT22;56729;52.036;5.332;2023-03-31T03:08:38;11.00;99.90
69533;DHT22;56729;52.036;5.332;2023-03-31T03:09:54;11.00;99.90
69533;DHT22;56729;52.036;5.332;2023-03-31T03:11:06;11.00;99.90
69533;DHT22;56729;52.036;5.332;2023-03-31T03:12:23;11.00;99.90
69533;DHT22;56729;52.036;5.332;2023-03-31T03:13:34;11.00;99.90
69533;DHT22;56729;52.036;5.332;2023-03-31T03:14:54;10.90;99.90
69533;DHT22;56729;52.036;5.332;2023-03-31T03:16:46;10.90;99.90
69533;DHT22;56729;52.036;5.332;2023-03-31T03:17:47;10.90;99.90
69533;DHT22;56729;52.036;5.332;2023-03-31T03:18:58;10.90;99.90
69533;DHT22;56729;52.036;5.332;2023-03-31T03:20:01;10.90;99.90
69533;DHT22;56729;52.036;5.332;2023-03-31T03:21:08;10.90;99.90
69533;DHT22;56729;52.036;5.332;2023-03-31T03:22:10;10.90;99.90
69533;DHT22;56729;52.036;5.332;2023-03-31T03:23:12;10.90;99.90
69533;DHT22;56729;52.036;5.332;2023-03-31T03:24:17;10.90;99.90
69533;DHT22;56729;52.036;5.332;2023-03-31T03:25:19;10.90;99.90
69533;DHT22;56729;52.036;5.332;2023-03-31T03:26:21;10.90;99.90
69533;DHT22;56729;52.036;5.332;2023-03-31T03:27:24;10.90;99.90
69533;DHT22;56729;52.036;5.332;2023-03-31T03:28:26;10.90;99.90
69533;DHT22;56729;52.036;5.332;2023-03-31T03:29:28;10.90;99.90
69533;DHT22;56729;52.036;5.332;2023-03-31T03:30:30;10.90;99.90
69533;DHT22;56729;52.036;5.332;2023-03-31T03:31:32;10.90;99.90
69533;DHT22;56729;52.036;5.332;2023-03-31T03:32:34;10.90;99.90
69533;DHT22;56729;52.036;5.332;2023-03-31T03:33:36;10.90;99.90
69533;DHT22;56729;52.036;5.332;2023-03-31T03:34:38;10.90;99.90
69533;DHT22;56729;52.036;5.332;2023-03-31T03:35:40;10.80;99.90
69533;DHT22;56729;52.036;5.332;2023-03-31T03:36:42;10.90;99.90
69533;DHT22;56729;52.036;5.332;2023-03-31T03:37:43;10.90;99.90
69533;DHT22;56729;52.036;5.332;2023-03-31T03:38:46;10.80;99.90
69533;DHT22;56729;52.036;5.332;2023-03-31T03:39:47;10.80;99.90
69533;DHT22;56729;52.036;5.332;2023-03-31T03:40:52;10.80;99.90
69533;DHT22;56729;52.036;5.332;2023-03-31T03:41:55;10.80;99.90
69533;DHT22;56729;52.036;5.332;2023-03-31T03:42:56;10.80;99.90
69533;DHT22;56729;52.036;5.332;2023-03-31T03:43:59;10.80;99.90
69533;DHT22;56729;52.036;5.332;2023-03-31T03:45:01;10.80;99.90
69533;DHT22;56729;52.036;5.332;2023-03-31T03:46:03;10.80;99.90
69533;DHT22;56729;52.036;5.332;2023-03-31T03:47:06;10.80;99.90
69533;DHT22;56729;52.036;5.332;2023-03-31T03:48:09;10.80;99.90
69533;DHT22;56729;52.036;5.332;2023-03-31T03:49:11;10.80;99.90
69533;DHT22;56729;52.036;5.332;2023-03-31T03:50:14;10.80;99.90
69533;DHT22;56729;52.036;5.332;2023-03-31T03:51:17;10.80;99.90
69533;DHT22;56729;52.036;5.332;2023-03-31T03:52:19;10.80;99.90
69533;DHT22;56729;52.036;5.332;2023-03-31T03:53:21;10.80;99.90
69533;DHT22;56729;52.036;5.332;2023-03-31T03:54:23;10.80;99.90
69533;DHT22;56729;52.036;5.332;2023-03-31T03:55:25;10.80;99.90
69533;DHT22;56729;52.036;5.332;2023-03-31T03:56:27;10.70;99.90
69533;DHT22;56729;52.036;5.332;2023-03-31T03:57:29;10.70;99.90
69533;DHT22;56729;52.036;5.332;2023-03-31T03:58:31;10.70;99.90
69533;DHT22;56729;52.036;5.332;2023-03-31T03:59:33;10.70;99.90
69533;DHT22;56729;52.036;5.332;2023-03-31T04:00:35;10.70;99.90
69533;DHT22;56729;52.036;5.332;2023-03-31T04:01:36;10.80;99.90
69533;DHT22;56729;52.036;5.332;2023-03-31T04:02:40;10.70;99.90
69533;DHT22;56729;52.036;5.332;2023-03-31T04:03:42;10.70;99.90
69533;DHT22;56729;52.036;5.332;2023-03-31T04:04:44;10.70;99.90
69533;DHT22;56729;52.036;5.332;2023-03-31T04:05:46;10.70;99.90
69533;DHT22;56729;52.036;5.332;2023-03-31T04:06:50;10.70;99.90
69533;DHT22;56729;52.036;5.332;2023-03-31T04:07:52;10.70;99.90
69533;DHT22;56729;52.036;5.332;2023-03-31T04:08:56;10.70;99.90
69533;DHT22;56729;52.036;5.332;2023-03-31T04:09:58;10.70;99.90
69533;DHT22;56729;52.036;5.332;2023-03-31T04:10:59;10.70;99.90
69533;DHT22;56729;52.036;5.332;2023-03-31T04:12:02;10.70;99.90
69533;DHT22;56729;52.036;5.332;2023-03-31T04:13:04;10.60;99.90
69533;DHT22;56729;52.036;5.332;2023-03-31T04:14:05;10.70;99.90
69533;DHT22;56729;52.036;5.332;2023-03-31T04:15:07;10.60;99.90
69533;DHT22;56729;52.036;5.332;2023-03-31T04:16:10;10.60;99.90
69533;DHT22;56729;52.036;5.332;2023-03-31T04:17:12;10.60;99.90
69533;DHT22;56729;52.036;5.332;2023-03-31T04:18:16;10.60;99.90
69533;DHT22;56729;52.036;5.332;2023-03-31T04:19:24;10.60;99.90
69533;DHT22;56729;52.036;5.332;2023-03-31T04:20:28;10.60;99.90
69533;DHT22;56729;52.036;5.332;2023-03-31T04:21:31;10.60;99.90
69533;DHT22;56729;52.036;5.332;2023-03-31T04:22:36;10.60;99.90
69533;DHT22;56729;52.036;5.332;2023-03-31T04:23:49;10.60;99.90
69533;DHT22;56729;52.036;5.332;2023-03-31T04:24:51;10.60;99.90
69533;DHT22;56729;52.036;5.332;2023-03-31T04:25:53;10.60;99.90
69533;DHT22;56729;52.036;5.332;2023-03-31T04:26:56;10.60;99.90
69533;DHT22;56729;52.036;5.332;2023-03-31T04:27:58;10.60;99.90
69533;DHT22;56729;52.036;5.332;2023-03-31T04:29:00;10.50;99.90
69533;DHT22;56729;52.036;5.332;2023-03-31T04:30:02;10.60;99.90
69533;DHT22;56729;52.036;5.332;2023-03-31T04:31:04;10.60;99.90
69533;DHT22;56729;52.036;5.332;2023-03-31T04:32:06;10.50;99.90
69533;DHT22;56729;52.036;5.332;2023-03-31T04:33:08;10.60;99.90
69533;DHT22;56729;52.036;5.332;2023-03-31T04:34:13;10.60;99.90
69533;DHT22;56729;52.036;5.332;2023-03-31T04:35:16;10.60;99.90
69533;DHT22;56729;52.036;5.332;2023-03-31T04:36:19;10.50;99.90
69533;DHT22;56729;52.036;5.332;2023-03-31T04:37:21;10.60;99.90
69533;DHT22;56729;52.036;5.332;2023-03-31T04:38:24;10.50;99.90
69533;DHT22;56729;52.036;5.332;2023-03-31T04:39:28;10.50;99.90
69533;DHT22;56729;52.036;5.332;2023-03-31T04:40:34;10.50;99.90
69533;DHT22;56729;52.036;5.332;2023-03-31T04:41:36;10.50;99.90
69533;DHT22;56729;52.036;5.332;2023-03-31T04:42:37;10.50;99.90
69533;DHT22;56729;52.036;5.332;2023-03-31T04:43:39;10.50;99.90
69533;DHT22;56729;52.036;5.332;2023-03-31T04:44:41;10.50;99.90
69533;DHT22;56729;52.036;5.332;2023-03-31T04:45:43;10.50;99.90
69533;DHT22;56729;52.036;5.332;2023-03-31T04:46:46;10.50;99.90
69533;DHT22;56729;52.036;5.332;2023-03-31T04:47:48;10.50;99.90
69533;DHT22;56729;52.036;5.332;2023-03-31T04:48:50;10.60;99.90
69533;DHT22;56729;52.036;5.332;2023-03-31T04:49:51;10.50;99.90
69533;DHT22;56729;52.036;5.332;2023-03-31T04:50:53;10.60;99.90
69533;DHT22;56729;52.036;5.332;2023-03-31T04:51:55;10.60;99.90
69533;DHT22;56729;52.036;5.332;2023-03-31T04:52:57;10.60;99.90
69533;DHT22;56729;52.036;5.332;2023-03-31T04:53:59;10.60;99.90
69533;DHT22;56729;52.036;5.332;2023-03-31T04:55:02;10.60;99.90
69533;DHT22;56729;52.036;5.332;2023-03-31T04:56:04;10.50;99.90
69533;DHT22;56729;52.036;5.332;2023-03-31T04:57:07;10.60;99.90
69533;DHT22;56729;52.036;5.332;2023-03-31T04:58:09;10.60;99.90
69533;DHT22;56729;52.036;5.332;2023-03-31T04:59:11;10.60;99.90
69533;DHT22;56729;52.036;5.332;2023-03-31T05:00:14;10.60;99.90
69533;DHT22;56729;52.036;5.332;2023-03-31T05:01:16;10.60;99.90
69533;DHT22;56729;52.036;5.332;2023-03-31T05:02:21;10.60;99.90
69533;DHT22;56729;52.036;5.332;2023-03-31T05:03:26;10.50;99.90
69533;DHT22;56729;52.036;5.332;2023-03-31T05:04:28;10.60;99.90
69533;DHT22;56729;52.036;5.332;2023-03-31T05:05:30;10.60;99.90
69533;DHT22;56729;52.036;5.332;2023-03-31T05:06:33;10.60;99.90
69533;DHT22;56729;52.036;5.332;2023-03-31T05:07:35;10.60;99.90
69533;DHT22;56729;52.036;5.332;2023-03-31T05:08:37;10.60;99.90
69533;DHT22;56729;52.036;5.332;2023-03-31T05:09:39;10.60;99.90
69533;DHT22;56729;52.036;5.332;2023-03-31T05:10:41;10.60;99.90
69533;DHT22;56729;52.036;5.332;2023-03-31T05:11:43;10.60;99.90
69533;DHT22;56729;52.036;5.332;2023-03-31T05:12:44;10.60;99.90
69533;DHT22;56729;52.036;5.332;2023-03-31T05:13:46;10.60;99.90
69533;DHT22;56729;52.036;5.332;2023-03-31T05:14:48;10.60;99.90
69533;DHT22;56729;52.036;5.332;2023-03-31T05:15:50;10.60;99.90
69533;DHT22;56729;52.036;5.332;2023-03-31T05:16:54;10.60;99.90
69533;DHT22;56729;52.036;5.332;2023-03-31T05:17:58;10.60;99.90
69533;DHT22;56729;52.036;5.332;2023-03-31T05:19:01;10.60;99.90
69533;DHT22;56729;52.036;5.332;2023-03-31T05:20:04;10.60;99.90
69533;DHT22;56729;52.036;5.332;2023-03-31T05:21:09;10.60;99.90
69533;DHT22;56729;52.036;5.332;2023-03-31T05:22:11;10.60;99.90
69533;DHT22;56729;52.036;5.332;2023-03-31T05:23:13;10.60;99.90
69533;DHT22;56729;52.036;5.332;2023-03-31T05:24:16;10.60;99.90
69533;DHT22;56729;52.036;5.332;2023-03-31T05:25:17;10.60;99.90
69533;DHT22;56729;52.036;5.332;2023-03-31T05:26:19;10.60;99.90
69533;DHT22;56729;52.036;5.332;2023-03-31T05:27:23;10.60;99.90
69533;DHT22;56729;52.036;5.332;2023-03-31T05:28:25;10.60;99.90
69533;DHT22;56729;52.036;5.332;2023-03-31T05:29:27;10.60;99.90
69533;DHT22;56729;52.036;5.332;2023-03-31T05:30:29;10.60;99.90
69533;DHT22;56729;52.036;5.332;2023-03-31T05:31:31;10.60;99.90
69533;DHT22;56729;52.036;5.332;2023-03-31T05:32:33;10.60;99.90
69533;DHT22;56729;52.036;5.332;2023-03-31T05:33:35;10.60;99.90
69533;DHT22;56729;52.036;5.332;2023-03-31T05:34:41;10.60;99.90
69533;DHT22;56729;52.036;5.332;2023-03-31T05:35:44;10.60;99.90
69533;DHT22;56729;52.036;5.332;2023-03-31T05:36:46;10.60;99.90
69533;DHT22;56729;52.036;5.332;2023-03-31T05:37:50;10.60;99.90
69533;DHT22;56729;52.036;5.332;2023-03-31T05:38:52;10.60;99.90
69533;DHT22;56729;52.036;5.332;2023-03-31T05:39:55;10.60;99.90
69533;DHT22;56729;52.036;5.332;2023-03-31T05:40:57;10.60;99.90
69533;DHT22;56729;52.036;5.332;2023-03-31T05:41:59;10.60;99.90
69533;DHT22;56729;52.036;5.332;2023-03-31T05:43:01;10.60;99.90
69533;DHT22;56729;52.036;5.332;2023-03-31T05:44:03;10.60;99.90
69533;DHT22;56729;52.036;5.332;2023-03-31T05:45:05;10.60;99.90
69533;DHT22;56729;52.036;5.332;2023-03-31T05:46:09;10.60;99.90
69533;DHT22;56729;52.036;5.332;2023-03-31T05:47:12;10.60;99.90
69533;DHT22;56729;52.036;5.332;2023-03-31T05:48:16;10.60;99.90
69533;DHT22;56729;52.036;5.332;2023-03-31T05:49:18;10.60;99.90
69533;DHT22;56729;52.036;5.332;2023-03-31T05:50:20;10.60;99.90
69533;DHT22;56729;52.036;5.332;2023-03-31T05:51:22;10.70;99.90
69533;DHT22;56729;52.036;5.332;2023-03-31T05:52:24;10.60;99.90
69533;DHT22;56729;52.036;5.332;2023-03-31T05:53:26;10.60;99.90
69533;DHT22;56729;52.036;5.332;2023-03-31T05:54:28;10.60;99.90
69533;DHT22;56729;52.036;5.332;2023-03-31T05:55:30;10.60;99.90
69533;DHT22;56729;52.036;5.332;2023-03-31T05:56:34;10.60;99.90
69533;DHT22;56729;52.036;5.332;2023-03-31T05:57:36;10.60;99.90
69533;DHT22;56729;52.036;5.332;2023-03-31T05:58:38;10.70;99.90
69533;DHT22;56729;52.036;5.332;2023-03-31T05:59:40;10.60;99.90
69533;DHT22;56729;52.036;5.332;2023-03-31T06:00:43;10.60;99.90
69533;DHT22;56729;52.036;5.332;2023-03-31T06:01:45;10.60;99.90
69533;DHT22;56729;52.036;5.332;2023-03-31T06:02:47;10.70;99.90
69533;DHT22;56729;52.036;5.332;2023-03-31T06:03:49;10.70;99.90
69533;DHT22;56729;52.036;5.332;2023-03-31T06:04:53;10.60;99.90
69533;DHT22;56729;52.036;5.332;2023-03-31T06:05:56;10.60;99.90
69533;DHT22;56729;52.036;5.332;2023-03-31T06:06:59;10.60;99.90
69533;DHT22;56729;52.036;5.332;2023-03-31T06:08:01;10.60;99.90
69533;DHT22;56729;52.036;5.332;2023-03-31T06:09:04;10.60;99.90
69533;DHT22;56729;52.036;5.332;2023-03-31T06:10:06;10.60;99.90
69533;DHT22;56729;52.036;5.332;2023-03-31T06:11:17;10.70;99.90
69533;DHT22;56729;52.036;5.332;2023-03-31T06:12:20;10.70;99.90
69533;DHT22;56729;52.036;5.332;2023-03-31T06:13:22;10.70;99.90
69533;DHT22;56729;52.036;5.332;2023-03-31T06:14:24;10.70;99.90
69533;DHT22;56729;52.036;5.332;2023-03-31T06:15:26;10.70;99.90
69533;DHT22;56729;52.036;5.332;2023-03-31T06:16:28;10.70;99.90
69533;DHT22;56729;52.036;5.332;2023-03-31T06:17:30;10.70;99.90
69533;DHT22;56729;52.036;5.332;2023-03-31T06:18:33;10.70;99.90
69533;DHT22;56729;52.036;5.332;2023-03-31T06:19:35;10.70;99.90
69533;DHT22;56729;52.036;5.332;2023-03-31T06:20:37;10.70;99.90
69533;DHT22;56729;52.036;5.332;2023-03-31T06:21:39;10.70;99.90
69533;DHT22;56729;52.036;5.332;2023-03-31T06:22:41;10.70;99.90
69533;DHT22;56729;52.036;5.332;2023-03-31T06:23:44;10.70;99.90
69533;DHT22;56729;52.036;5.332;2023-03-31T06:24:46;10.70;99.90
69533;DHT22;56729;52.036;5.332;2023-03-31T06:25:48;10.70;99.90
69533;DHT22;56729;52.036;5.332;2023-03-31T06:26:52;10.70;99.90
69533;DHT22;56729;52.036;5.332;2023-03-31T06:27:54;10.70;99.90
69533;DHT22;56729;52.036;5.332;2023-03-31T06:28:56;10.70;99.90
69533;DHT22;56729;52.036;5.332;2023-03-31T06:29:58;10.70;99.90
69533;DHT22;56729;52.036;5.332;2023-03-31T06:31:05;10.70;99.90
69533;DHT22;56729;52.036;5.332;2023-03-31T06:32:08;10.80;99.90
69533;DHT22;56729;52.036;5.332;2023-03-31T06:33:09;10.70;99.90
69533;DHT22;56729;52.036;5.332;2023-03-31T06:34:12;10.80;99.90
69533;DHT22;56729;52.036;5.332;2023-03-31T06:35:13;10.70;99.90
69533;DHT22;56729;52.036;5.332;2023-03-31T06:36:18;10.70;99.90
69533;DHT22;56729;52.036;5.332;2023-03-31T06:37:20;10.80;99.90
69533;DHT22;56729;52.036;5.332;2023-03-31T06:38:22;10.70;99.90
69533;DHT22;56729;52.036;5.332;2023-03-31T06:39:24;10.80;99.90
69533;DHT22;56729;52.036;5.332;2023-03-31T06:40:29;10.70;99.90
69533;DHT22;56729;52.036;5.332;2023-03-31T06:41:30;10.70;99.90
69533;DHT22;56729;52.036;5.332;2023-03-31T06:42:32;10.70;99.90
69533;DHT22;56729;52.036;5.332;2023-03-31T06:43:35;10.70;99.90
69533;DHT22;56729;52.036;5.332;2023-03-31T06:44:37;10.70;99.90
69533;DHT22;56729;52.036;5.332;2023-03-31T06:45:39;10.80;99.90
69533;DHT22;56729;52.036;5.332;2023-03-31T06:46:41;10.80;99.90
69533;DHT22;56729;52.036;5.332;2023-03-31T06:47:43;10.80;99.90
69533;DHT22;56729;52.036;5.332;2023-03-31T06:48:46;10.80;99.90
69533;DHT22;56729;52.036;5.332;2023-03-31T06:49:48;10.80;99.90
69533;DHT22;56729;52.036;5.332;2023-03-31T06:50:52;10.70;99.90
69533;DHT22;56729;52.036;5.332;2023-03-31T06:51:54;10.80;99.90
69533;DHT22;56729;52.036;5.332;2023-03-31T06:52:56;10.80;99.90
69533;DHT22;56729;52.036;5.332;2023-03-31T06:53:58;10.80;99.90
69533;DHT22;56729;52.036;5.332;2023-03-31T06:55:00;10.80;99.90
69533;DHT22;56729;52.036;5.332;2023-03-31T06:56:03;10.80;99.90
69533;DHT22;56729;52.036;5.332;2023-03-31T06:57:05;10.80;99.90
69533;DHT22;56729;52.036;5.332;2023-03-31T06:58:07;10.80;99.90
69533;DHT22;56729;52.036;5.332;2023-03-31T06:59:09;10.80;99.90
69533;DHT22;56729;52.036;5.332;2023-03-31T07:00:11;10.80;99.90
69533;DHT22;56729;52.036;5.332;2023-03-31T07:01:13;10.80;99.90
69533;DHT22;56729;52.036;5.332;2023-03-31T07:02:16;10.80;99.90
69533;DHT22;56729;52.036;5.332;2023-03-31T07:03:17;10.80;99.90
69533;DHT22;56729;52.036;5.332;2023-03-31T07:04:23;10.80;99.90
69533;DHT22;56729;52.036;5.332;2023-03-31T07:05:25;10.80;99.90
69533;DHT22;56729;52.036;5.332;2023-03-31T07:06:28;10.80;99.90
69533;DHT22;56729;52.036;5.332;2023-03-31T07:07:31;10.80;99.90
69533;DHT22;56729;52.036;5.332;2023-03-31T07:08:33;10.80;99.90
69533;DHT22;56729;52.036;5.332;2023-03-31T07:09:34;10.80;99.90
69533;DHT22;56729;52.036;5.332;2023-03-31T07:10:36;10.80;99.90
69533;DHT22;56729;52.036;5.332;2023-03-31T07:11:38;10.80;99.90
69533;DHT22;56729;52.036;5.332;2023-03-31T07:12:40;10.80;99.90
69533;DHT22;56729;52.036;5.332;2023-03-31T07:13:42;10.80;99.90
69533;DHT22;56729;52.036;5.332;2023-03-31T07:14:44;10.90;99.90
69533;DHT22;56729;52.036;5.332;2023-03-31T07:15:47;10.90;99.90
69533;DHT22;56729;52.036;5.332;2023-03-31T07:16:49;10.90;99.90
69533;DHT22;56729;52.036;5.332;2023-03-31T07:17:51;10.90;99.90
69533;DHT22;56729;52.036;5.332;2023-03-31T07:18:54;10.90;99.90
69533;DHT22;56729;52.036;5.332;2023-03-31T07:20:00;10.90;99.90
69533;DHT22;56729;52.036;5.332;2023-03-31T07:21:02;10.90;99.90
69533;DHT22;56729;52.036;5.332;2023-03-31T07:22:10;10.80;99.90
69533;DHT22;56729;52.036;5.332;2023-03-31T07:23:11;10.80;99.90
69533;DHT22;56729;52.036;5.332;2023-03-31T07:24:13;10.80;99.90
69533;DHT22;56729;52.036;5.332;2023-03-31T07:25:16;10.80;99.90
69533;DHT22;56729;52.036;5.332;2023-03-31T07:26:18;10.80;99.90
69533;DHT22;56729;52.036;5.332;2023-03-31T07:27:20;10.80;99.90